createdAt,value
2022-08-31T00:00:18.243Z,20.40
2022-08-31T00:03:03.895Z,20.37
2022-08-31T00:05:30.905Z,20.26
2022-08-31T00:07:58.104Z,20.19
2022-08-31T00:10:31.972Z,20.21
2022-08-31T00:13:02.962Z,20.09
2022-08-31T00:15:30.672Z,19.99
2022-08-31T00:17:58.374Z,19.85
2022-08-31T00:20:33.146Z,19.80
2022-08-31T00:23:04.148Z,19.85
2022-08-31T00:25:32.147Z,19.80
2022-08-31T00:27:59.301Z,19.75
2022-08-31T00:30:26.693Z,19.71
2022-08-31T00:32:53.776Z,19.62
2022-08-31T00:35:24.324Z,19.58
2022-08-31T00:37:51.318Z,19.54
2022-08-31T00:40:18.788Z,19.64
2022-08-31T00:42:45.884Z,19.80
2022-08-31T00:45:13.061Z,19.67
2022-08-31T00:47:40.208Z,19.67
2022-08-31T00:50:10.624Z,19.62
2022-08-31T00:52:41.376Z,19.55
2022-08-31T00:55:21.733Z,19.53
2022-08-31T00:57:53.022Z,19.72
2022-08-31T01:00:27.256Z,19.73
2022-08-31T01:02:55.909Z,19.57
2022-08-31T01:05:23.601Z,19.54
2022-08-31T01:07:53.060Z,19.60
2022-08-31T01:10:24.045Z,19.78
2022-08-31T01:12:55.652Z,19.93
2022-08-31T01:15:25.259Z,19.80
2022-08-31T01:17:55.895Z,19.95
2022-08-31T01:20:37.836Z,20.03
2022-08-31T01:23:16.106Z,19.98
2022-08-31T01:25:46.230Z,20.10
2022-08-31T01:28:13.656Z,20.10
2022-08-31T01:30:42.799Z,20.12
2022-08-31T01:33:11.645Z,19.94
2022-08-31T01:35:42.945Z,19.82
2022-08-31T01:38:11.092Z,19.82
2022-08-31T01:40:49.565Z,19.80
2022-08-31T01:43:16.948Z,19.82
2022-08-31T01:45:44.474Z,19.71
2022-08-31T01:48:11.710Z,19.65
2022-08-31T01:50:39.414Z,19.81
2022-08-31T01:53:06.625Z,19.82
2022-08-31T01:55:33.602Z,19.78
2022-08-31T01:58:01.346Z,19.68
2022-08-31T02:00:56.282Z,19.69
2022-08-31T02:03:23.323Z,19.69
2022-08-31T02:08:19.107Z,19.57
2022-08-31T02:10:46.559Z,19.57
2022-08-31T02:13:14.091Z,19.49
2022-08-31T02:15:41.115Z,19.57
2022-08-31T02:18:08.763Z,19.52
2022-08-31T02:20:39.399Z,19.56
2022-08-31T02:23:06.487Z,19.51
2022-08-31T02:25:34.539Z,19.39
2022-08-31T02:28:03.253Z,19.41
2022-08-31T02:30:30.364Z,19.34
2022-08-31T02:32:57.867Z,19.30
2022-08-31T02:35:24.945Z,19.31
2022-08-31T02:37:51.950Z,19.30
2022-08-31T02:40:19.301Z,19.21
2022-08-31T02:42:52.724Z,19.05
2022-08-31T02:45:23.037Z,18.96
2022-08-31T02:47:50.513Z,18.94
2022-08-31T02:50:28.394Z,18.89
2022-08-31T02:52:56.950Z,18.84
2022-08-31T02:55:25.462Z,18.82
2022-08-31T02:57:53.123Z,18.88
2022-08-31T03:00:22.886Z,18.81
2022-08-31T03:02:51.011Z,18.63
2022-08-31T03:05:18.858Z,18.66
2022-08-31T03:07:45.905Z,18.64
2022-08-31T03:10:14.939Z,18.62
2022-08-31T03:12:43.443Z,18.70
2022-08-31T03:15:11.215Z,18.85
2022-08-31T03:17:38.473Z,18.74
2022-08-31T03:20:07.955Z,18.70
2022-08-31T03:22:35.830Z,18.77
2022-08-31T03:25:05.401Z,18.91
2022-08-31T03:27:32.638Z,18.82
2022-08-31T03:30:00.773Z,18.82
2022-08-31T03:32:31.521Z,18.70
2022-08-31T03:35:00.575Z,18.77
2022-08-31T03:37:28.159Z,18.75
2022-08-31T03:40:02.136Z,18.77
2022-08-31T03:42:31.985Z,18.74
2022-08-31T03:44:59.703Z,18.66
2022-08-31T03:47:31.830Z,18.60
2022-08-31T03:50:00.210Z,18.56
2022-08-31T03:52:39.268Z,18.44
2022-08-31T03:55:14.159Z,18.43
2022-08-31T03:57:42.208Z,18.35
2022-08-31T04:00:09.970Z,18.31
2022-08-31T04:02:40.589Z,18.37
2022-08-31T04:05:27.694Z,18.47
2022-08-31T04:08:14.625Z,18.47
2022-08-31T04:10:46.799Z,19.13
2022-08-31T04:13:35.574Z,18.86
2022-08-31T04:16:23.587Z,18.77
2022-08-31T04:19:02.867Z,18.76
2022-08-31T04:21:38.763Z,18.71
2022-08-31T04:24:08.278Z,18.55
2022-08-31T04:26:37.881Z,18.48
2022-08-31T04:29:12.238Z,18.43
2022-08-31T04:31:40.793Z,18.52
2022-08-31T04:34:07.888Z,18.82
2022-08-31T04:36:35.214Z,18.95
2022-08-31T04:39:04.252Z,18.96
2022-08-31T04:41:33.393Z,19.12
2022-08-31T04:44:02.026Z,19.24
2022-08-31T04:46:31.151Z,19.44
2022-08-31T04:48:58.669Z,19.88
2022-08-31T04:51:28.699Z,20.18
2022-08-31T04:53:56.485Z,20.56
2022-08-31T04:56:26.662Z,20.98
2022-08-31T04:59:00.090Z,21.08
2022-08-31T05:01:38.120Z,21.65
2022-08-31T05:04:29.369Z,21.66
2022-08-31T05:06:56.729Z,22.03
2022-08-31T05:09:24.245Z,22.40
2022-08-31T05:11:54.513Z,22.28
2022-08-31T05:14:24.378Z,22.33
2022-08-31T05:17:01.466Z,22.07
2022-08-31T05:19:32.172Z,21.88
2022-08-31T05:21:59.574Z,21.64
2022-08-31T05:24:26.829Z,21.37
2022-08-31T05:26:56.318Z,21.33
2022-08-31T05:29:25.742Z,20.96
2022-08-31T05:32:11.574Z,21.44
2022-08-31T05:34:39.037Z,21.52
2022-08-31T05:37:06.101Z,21.25
2022-08-31T05:39:33.845Z,21.18
2022-08-31T05:42:00.982Z,21.51
2022-08-31T05:44:29.451Z,21.41
2022-08-31T05:47:04.069Z,21.46
2022-08-31T05:49:32.692Z,21.69
2022-08-31T05:52:01.441Z,21.75
2022-08-31T05:54:30.209Z,21.74
2022-08-31T05:57:01.072Z,21.92
2022-08-31T05:59:30.113Z,21.99
2022-08-31T06:01:58.261Z,22.05
2022-08-31T06:04:28.465Z,22.03
2022-08-31T06:06:55.726Z,22.12
2022-08-31T06:09:26.113Z,22.34
2022-08-31T06:11:54.405Z,22.08
2022-08-31T06:14:24.804Z,22.01
2022-08-31T06:16:56.733Z,21.88
2022-08-31T06:19:24.480Z,22.13
2022-08-31T06:21:53.155Z,22.75
2022-08-31T06:24:25.589Z,22.59
2022-08-31T06:26:58.809Z,22.49
2022-08-31T06:29:33.499Z,22.48
2022-08-31T06:32:08.343Z,22.85
2022-08-31T06:34:40.267Z,22.74
2022-08-31T06:37:10.921Z,23.03
2022-08-31T06:40:12.312Z,23.05
2022-08-31T06:43:08.896Z,23.15
2022-08-31T06:46:02.487Z,23.58
2022-08-31T06:48:33.653Z,23.51
2022-08-31T06:51:02.411Z,23.50
2022-08-31T06:53:30.358Z,23.52
2022-08-31T06:55:57.347Z,23.64
2022-08-31T06:58:43.231Z,23.99
2022-08-31T07:01:34.806Z,24.13
2022-08-31T07:04:19.756Z,24.58
2022-08-31T07:06:47.508Z,24.68
2022-08-31T07:09:17.934Z,24.32
2022-08-31T07:11:47.757Z,24.32
2022-08-31T07:14:17.334Z,24.66
2022-08-31T07:16:45.787Z,24.80
2022-08-31T07:19:14.375Z,24.96
2022-08-31T07:21:45.356Z,25.02
2022-08-31T07:24:14.250Z,25.19
2022-08-31T07:26:45.288Z,25.02
2022-08-31T07:29:17.052Z,25.07
2022-08-31T07:31:48.906Z,25.21
2022-08-31T07:34:25.958Z,25.34
2022-08-31T07:37:34.504Z,25.52
2022-08-31T07:40:24.104Z,25.52
2022-08-31T07:42:52.058Z,25.43
2022-08-31T07:45:23.249Z,25.64
2022-08-31T07:47:56.336Z,25.74
2022-08-31T07:50:31.801Z,25.68
2022-08-31T07:53:21.553Z,25.62
2022-08-31T07:56:11.650Z,25.55
2022-08-31T07:58:42.864Z,25.68
2022-08-31T08:01:11.940Z,25.56
2022-08-31T08:03:44.225Z,25.64
2022-08-31T08:06:32.529Z,26.01
2022-08-31T08:09:24.889Z,25.82
2022-08-31T08:12:06.433Z,26.02
2022-08-31T08:15:13.158Z,25.52
2022-08-31T08:17:59.205Z,25.81
2022-08-31T08:20:38.040Z,25.74
2022-08-31T08:23:13.696Z,25.77
2022-08-31T08:26:09.521Z,25.99
2022-08-31T08:29:05.674Z,25.78
2022-08-31T08:31:34.719Z,25.95
2022-08-31T08:34:02.073Z,25.98
2022-08-31T08:36:35.937Z,26.11
2022-08-31T08:39:06.478Z,26.36
2022-08-31T08:41:36.947Z,26.53
2022-08-31T08:44:07.980Z,26.79
2022-08-31T08:46:44.247Z,26.72
2022-08-31T08:49:21.493Z,26.44
2022-08-31T08:51:54.408Z,26.19
2022-08-31T08:54:35.205Z,26.45
2022-08-31T08:57:14.399Z,26.60
2022-08-31T08:59:47.872Z,26.80
2022-08-31T09:02:20.487Z,26.83
2022-08-31T09:05:14.330Z,26.79
2022-08-31T09:08:05.236Z,26.78
2022-08-31T09:10:42.639Z,27.00
2022-08-31T09:13:50.643Z,27.28
2022-08-31T09:16:41.085Z,27.42
2022-08-31T09:19:15.888Z,27.62
2022-08-31T09:22:03.368Z,27.41
2022-08-31T09:24:30.549Z,27.00
2022-08-31T09:27:48.146Z,26.80
2022-08-31T09:30:36.648Z,27.18
2022-08-31T09:33:04.246Z,27.29
2022-08-31T09:35:45.986Z,27.41
2022-08-31T09:38:27.178Z,27.16
2022-08-31T09:40:54.288Z,27.26
2022-08-31T09:43:22.456Z,27.36
2022-08-31T09:45:52.615Z,27.03
2022-08-31T09:48:59.555Z,27.27
2022-08-31T09:51:33.844Z,27.54
2022-08-31T09:54:34.182Z,27.43
2022-08-31T09:57:04.292Z,27.14
2022-08-31T09:59:34.712Z,27.09
2022-08-31T10:02:02.637Z,27.09
2022-08-31T10:04:37.099Z,27.11
2022-08-31T10:07:25.110Z,27.42
2022-08-31T10:09:58.159Z,27.64
2022-08-31T10:12:51.598Z,28.24
2022-08-31T10:15:32.199Z,28.10
2022-08-31T10:18:23.026Z,28.10
2022-08-31T10:20:58.250Z,27.78
2022-08-31T10:23:34.998Z,27.58
2022-08-31T10:26:17.125Z,27.44
2022-08-31T10:28:51.945Z,27.89
2022-08-31T10:31:30.353Z,28.14
2022-08-31T10:34:21.353Z,27.92
2022-08-31T10:36:54.057Z,28.30
2022-08-31T10:39:36.872Z,28.25
2022-08-31T10:42:12.245Z,28.40
2022-08-31T10:45:03.624Z,27.91
2022-08-31T10:47:41.526Z,27.47
2022-08-31T10:50:10.575Z,27.37
2022-08-31T10:52:47.822Z,27.29
2022-08-31T10:55:25.806Z,27.29
2022-08-31T10:58:15.095Z,27.18
2022-08-31T11:00:57.263Z,26.88
2022-08-31T11:03:35.241Z,26.72
2022-08-31T11:06:02.284Z,26.67
2022-08-31T11:08:32.203Z,26.68
2022-08-31T11:10:59.923Z,27.06
2022-08-31T11:14:00.437Z,26.87
2022-08-31T11:16:32.874Z,26.51
2022-08-31T11:19:11.488Z,24.79
2022-08-31T11:22:11.431Z,24.10
2022-08-31T11:24:41.269Z,23.61
2022-08-31T11:27:23.249Z,23.59
2022-08-31T11:29:59.235Z,23.37
2022-08-31T11:32:29.160Z,23.67
2022-08-31T11:35:08.507Z,24.21
2022-08-31T11:37:54.694Z,24.84
2022-08-31T11:40:42.048Z,25.43
2022-08-31T11:43:32.965Z,25.87
2022-08-31T11:46:28.761Z,25.96
2022-08-31T11:48:55.886Z,26.11
2022-08-31T11:51:41.723Z,26.34
2022-08-31T11:54:42.053Z,26.64
2022-08-31T11:57:16.077Z,26.76
2022-08-31T11:59:47.808Z,27.09
2022-08-31T12:02:21.273Z,26.48
2022-08-31T12:05:03.306Z,26.10
2022-08-31T12:07:36.661Z,26.27
2022-08-31T12:10:42.950Z,26.27
2022-08-31T12:13:23.203Z,26.72
2022-08-31T12:16:10.829Z,26.85
2022-08-31T12:18:41.343Z,26.59
2022-08-31T12:21:48.361Z,26.17
2022-08-31T12:24:33.873Z,26.06
2022-08-31T12:27:02.837Z,26.19
2022-08-31T12:29:36.471Z,26.34
2022-08-31T12:32:28.686Z,26.46
2022-08-31T12:35:07.497Z,26.61
2022-08-31T12:37:36.971Z,26.33
2022-08-31T12:40:19.811Z,26.37
2022-08-31T12:42:55.589Z,26.73
2022-08-31T12:46:13.417Z,26.66
2022-08-31T12:49:22.006Z,26.91
2022-08-31T12:51:56.872Z,26.64
2022-08-31T12:54:49.591Z,27.25
2022-08-31T12:57:26.795Z,27.86
2022-08-31T13:00:21.868Z,27.91
2022-08-31T13:02:53.210Z,28.35
2022-08-31T13:05:33.645Z,28.55
2022-08-31T13:08:01.124Z,28.50
2022-08-31T13:10:34.783Z,28.55
2022-08-31T13:13:05.546Z,28.70
2022-08-31T13:15:39.619Z,28.59
2022-08-31T13:18:22.179Z,28.56
2022-08-31T13:20:54.919Z,28.37
2022-08-31T13:23:38.613Z,28.15
2022-08-31T13:26:20.055Z,27.65
2022-08-31T13:28:56.166Z,27.61
2022-08-31T13:31:35.194Z,27.89
2022-08-31T13:34:03.685Z,28.16
2022-08-31T13:36:34.463Z,27.99
2022-08-31T13:39:39.217Z,27.99
2022-08-31T13:42:09.764Z,28.02
2022-08-31T13:44:44.236Z,28.18
2022-08-31T13:47:21.720Z,28.36
2022-08-31T13:49:53.305Z,28.97
2022-08-31T13:52:30.585Z,29.39
2022-08-31T13:55:05.202Z,29.51
2022-08-31T13:57:35.965Z,29.29
2022-08-31T14:00:27.874Z,29.08
2022-08-31T14:02:56.103Z,29.12
2022-08-31T14:05:32.337Z,29.16
2022-08-31T14:08:04.471Z,29.16
2022-08-31T14:10:39.462Z,29.33
2022-08-31T14:13:18.689Z,29.34
2022-08-31T14:15:53.633Z,29.28
2022-08-31T14:18:37.679Z,29.26
2022-08-31T14:21:21.039Z,29.04
2022-08-31T14:24:01.683Z,29.24
2022-08-31T14:26:32.252Z,29.33
2022-08-31T14:29:12.540Z,29.03
2022-08-31T14:31:52.600Z,28.99
2022-08-31T14:34:32.374Z,29.05
2022-08-31T14:37:19.895Z,28.81
2022-08-31T14:39:53.935Z,28.52
2022-08-31T14:42:27.672Z,28.40
2022-08-31T14:44:59.734Z,27.89
2022-08-31T14:47:29.182Z,27.87
2022-08-31T14:50:05.521Z,27.86
2022-08-31T14:52:41.517Z,27.76
2022-08-31T14:55:11.375Z,27.74
2022-08-31T14:57:45.676Z,27.68
2022-08-31T15:00:18.930Z,27.59
2022-08-31T15:02:49.913Z,27.51
2022-08-31T15:05:18.281Z,27.49
2022-08-31T15:07:47.091Z,27.36
2022-08-31T15:10:14.163Z,27.30
2022-08-31T15:12:41.172Z,27.19
2022-08-31T15:15:09.983Z,27.09
2022-08-31T15:17:39.692Z,27.01
2022-08-31T15:20:08.593Z,26.91
2022-08-31T15:22:37.551Z,26.91
2022-08-31T15:25:05.253Z,26.78
2022-08-31T15:27:32.213Z,26.76
2022-08-31T15:30:08.236Z,26.63
2022-08-31T15:32:42.344Z,25.85
2022-08-31T15:35:14.399Z,25.49
2022-08-31T15:37:41.530Z,25.14
2022-08-31T15:40:10.912Z,24.12
2022-08-31T15:42:39.688Z,22.48
2022-08-31T15:45:07.426Z,21.96
2022-08-31T15:47:57.562Z,21.88
2022-08-31T15:50:31.729Z,21.29
2022-08-31T15:53:08.299Z,21.15
2022-08-31T15:55:40.918Z,21.21
2022-08-31T15:58:09.608Z,21.29
2022-08-31T16:00:37.557Z,21.32
2022-08-31T16:03:06.261Z,21.32
2022-08-31T16:05:39.554Z,21.34
2022-08-31T16:08:10.101Z,21.35
2022-08-31T16:10:41.873Z,21.42
2022-08-31T16:13:09.533Z,21.43
2022-08-31T16:15:38.806Z,21.36
2022-08-31T16:18:06.364Z,21.51
2022-08-31T16:20:34.784Z,21.82
2022-08-31T16:23:07.769Z,22.12
2022-08-31T16:25:48.239Z,22.24
2022-08-31T16:28:20.128Z,22.43
2022-08-31T16:30:48.104Z,22.38
2022-08-31T16:33:15.043Z,22.50
2022-08-31T16:35:47.290Z,22.53
2022-08-31T16:38:14.669Z,22.49
2022-08-31T16:40:42.165Z,22.82
2022-08-31T16:43:09.723Z,22.92
2022-08-31T16:45:40.791Z,22.84
2022-08-31T16:48:29.368Z,22.80
2022-08-31T16:50:58.189Z,22.75
2022-08-31T16:53:25.960Z,22.83
2022-08-31T16:55:53.500Z,22.81
2022-08-31T16:58:47.596Z,22.76
2022-08-31T17:01:14.033Z,22.80
2022-08-31T17:03:46.044Z,22.89
2022-08-31T17:06:13.624Z,22.88
2022-08-31T17:08:47.353Z,22.78
2022-08-31T17:11:28.671Z,22.88
2022-08-31T17:13:58.482Z,22.81
2022-08-31T17:16:35.205Z,22.82
2022-08-31T17:19:06.713Z,22.88
2022-08-31T17:21:34.945Z,22.94
2022-08-31T17:24:04.882Z,23.09
2022-08-31T17:26:34.770Z,23.11
2022-08-31T17:29:03.870Z,23.13
2022-08-31T17:31:34.221Z,23.05
2022-08-31T17:34:02.005Z,23.20
2022-08-31T17:36:34.278Z,23.19
2022-08-31T17:39:04.910Z,23.16
2022-08-31T17:41:32.065Z,23.07
2022-08-31T17:44:00.112Z,22.88
2022-08-31T17:46:27.670Z,22.68
2022-08-31T17:48:56.197Z,22.36
2022-08-31T17:51:27.326Z,22.28
2022-08-31T17:54:07.755Z,22.29
2022-08-31T17:57:00.701Z,22.32
2022-08-31T17:59:31.996Z,22.26
2022-08-31T18:02:01.706Z,22.31
2022-08-31T18:04:31.333Z,22.38
2022-08-31T18:06:58.651Z,22.51
2022-08-31T18:09:28.653Z,22.61
2022-08-31T18:11:56.456Z,22.67
2022-08-31T18:14:29.431Z,22.73
2022-08-31T18:16:58.581Z,22.74
2022-08-31T18:19:28.279Z,22.60
2022-08-31T18:22:00.009Z,22.61
2022-08-31T18:24:28.040Z,22.63
2022-08-31T18:26:56.846Z,22.72
2022-08-31T18:29:24.911Z,22.71
2022-08-31T18:31:54.335Z,22.62
2022-08-31T18:34:23.929Z,22.68
2022-08-31T18:36:55.428Z,22.72
2022-08-31T18:39:50.145Z,22.69
2022-08-31T18:42:32.399Z,22.67
2022-08-31T18:45:18.344Z,22.60
2022-08-31T18:48:07.150Z,22.59
2022-08-31T18:50:37.271Z,22.56
2022-08-31T18:53:11.200Z,22.55
2022-08-31T18:55:44.438Z,22.57
2022-08-31T18:58:11.977Z,22.58
2022-08-31T19:00:40.478Z,22.52
2022-08-31T19:03:07.981Z,22.46
2022-08-31T19:05:38.408Z,22.42
2022-08-31T19:08:05.774Z,22.41
2022-08-31T19:10:34.908Z,22.34
2022-08-31T19:13:05.429Z,22.37
2022-08-31T19:15:39.345Z,22.29
2022-08-31T19:18:07.192Z,22.28
2022-08-31T19:20:35.700Z,22.27
2022-08-31T19:23:02.857Z,22.30
2022-08-31T19:25:32.054Z,22.23
2022-08-31T19:28:01.752Z,22.19
2022-08-31T19:30:28.991Z,22.17
2022-08-31T19:32:56.649Z,22.18
2022-08-31T19:35:26.919Z,22.17
2022-08-31T19:37:56.608Z,22.24
2022-08-31T19:40:35.556Z,22.20
2022-08-31T19:45:51.039Z,22.06
2022-08-31T19:48:23.395Z,22.04
2022-08-31T19:50:51.344Z,22.00
2022-08-31T19:53:21.945Z,22.00
2022-08-31T19:55:51.390Z,21.99
2022-08-31T19:58:25.499Z,21.97
2022-08-31T20:01:00.933Z,21.93
2022-08-31T20:03:34.420Z,21.88
2022-08-31T20:06:10.416Z,21.84
2022-08-31T20:08:37.721Z,21.83
2022-08-31T20:11:07.979Z,21.79
2022-08-31T20:13:38.540Z,21.73
2022-08-31T20:16:08.379Z,21.71
2022-08-31T20:18:42.711Z,21.67
2022-08-31T20:21:18.145Z,21.62
2022-08-31T20:23:50.165Z,21.58
2022-08-31T20:26:21.380Z,21.60
2022-08-31T20:28:53.943Z,21.53
2022-08-31T20:31:21.179Z,21.54
2022-08-31T20:33:48.273Z,21.47
2022-08-31T20:36:22.799Z,21.45
2022-08-31T20:38:56.883Z,21.51
2022-08-31T20:41:25.834Z,21.49
2022-08-31T20:43:52.794Z,21.39
2022-08-31T20:46:38.144Z,21.38
2022-08-31T20:49:23.960Z,21.34
2022-08-31T20:51:51.850Z,21.27
2022-08-31T20:54:18.954Z,21.24
2022-08-31T20:56:46.257Z,21.15
2022-08-31T20:59:13.277Z,21.13
2022-08-31T21:01:40.973Z,21.09
2022-08-31T21:04:08.330Z,21.05
2022-08-31T21:06:39.362Z,21.04
2022-08-31T21:09:10.200Z,21.00
2022-08-31T21:11:40.789Z,20.90
2022-08-31T21:14:08.175Z,20.90
2022-08-31T21:16:35.971Z,20.88
2022-08-31T21:19:06.709Z,20.83
2022-08-31T21:21:36.484Z,20.80
2022-08-31T21:24:03.932Z,20.98
2022-08-31T21:26:36.585Z,21.03
2022-08-31T21:29:17.309Z,20.98
2022-08-31T21:31:56.833Z,20.91
2022-08-31T21:34:27.246Z,21.01
2022-08-31T21:36:57.620Z,21.20
2022-08-31T21:39:25.286Z,21.21
2022-08-31T21:41:52.360Z,20.92
2022-08-31T21:44:25.774Z,20.88
2022-08-31T21:46:52.915Z,20.82
2022-08-31T21:49:20.075Z,20.70
2022-08-31T21:51:55.068Z,20.63
2022-08-31T21:54:26.252Z,20.60
2022-08-31T21:56:56.402Z,20.62
2022-08-31T21:59:25.885Z,20.61
2022-08-31T22:01:57.537Z,20.14
2022-08-31T22:04:26.097Z,19.76
2022-08-31T22:06:53.942Z,19.71
2022-08-31T22:09:23.169Z,19.72
2022-08-31T22:11:55.022Z,19.64
2022-08-31T22:14:26.518Z,19.62
2022-08-31T22:16:58.070Z,19.62
2022-08-31T22:19:28.652Z,19.89
2022-08-31T22:21:59.192Z,19.74
2022-08-31T22:24:29.691Z,19.81
2022-08-31T22:26:59.800Z,19.83
2022-08-31T22:29:33.478Z,19.84
2022-08-31T22:32:04.759Z,19.78
2022-08-31T22:34:31.851Z,19.86
2022-08-31T22:36:58.838Z,19.91
2022-08-31T22:39:29.085Z,19.77
2022-08-31T22:41:58.211Z,19.59
2022-08-31T22:44:27.326Z,19.48
2022-08-31T22:46:56.547Z,19.41
2022-08-31T22:49:24.530Z,19.43
2022-08-31T22:51:51.572Z,19.49
2022-08-31T22:54:19.961Z,19.34
2022-08-31T22:56:47.858Z,19.29
2022-08-31T22:59:21.110Z,19.41
2022-08-31T23:01:53.147Z,19.41
2022-08-31T23:04:22.066Z,19.47
2022-08-31T23:06:51.847Z,19.49
2022-08-31T23:09:27.753Z,19.51
2022-08-31T23:11:56.552Z,19.53
2022-08-31T23:14:24.202Z,19.59
2022-08-31T23:16:58.073Z,19.66
2022-08-31T23:19:33.481Z,19.68
2022-08-31T23:22:01.768Z,19.76
2022-08-31T23:24:47.109Z,19.89
2022-08-31T23:27:17.888Z,19.87
2022-08-31T23:29:48.741Z,19.91
2022-08-31T23:32:21.392Z,19.72
2022-08-31T23:34:52.735Z,19.68
2022-08-31T23:37:23.207Z,19.71
2022-08-31T23:39:54.590Z,19.99
2022-08-31T23:42:23.666Z,19.76
2022-08-31T23:44:51.219Z,19.76
2022-08-31T23:47:21.596Z,19.56
2022-08-31T23:49:53.482Z,19.57
2022-08-31T23:52:24.329Z,19.59
2022-08-31T23:55:01.068Z,19.64
2022-08-31T23:57:32.909Z,19.61
